Time;durP1;ratioP1;P1;durP2;ratioP2;P2;SDS_P1;SDS_P2;PMS_P1;PMS_P2;Temp;Humidity;BMP_temperature;BMP_pressure;BME280_temperature;BME280_humidity;BME280_pressure;Samples;Min_cycle;Max_cycle;Signal;HPM_P1;HPM_P2
2021/07/09 00:00:57;;;;;;;;;;;;;;;25.37;48.04;101695.69;5028731;28;943;-66
2021/07/09 00:03:42;;;;;;;;;;;;;;;25.36;48.11;101689.50;5027049;28;1321;-65
2021/07/09 00:06:28;;;;;;;;;;;;;;;25.33;48.23;101691.53;5028894;28;1065;-66
2021/07/09 00:09:13;;;;;;;;;;;;;;;25.32;48.11;101690.69;5028749;28;1906;-66
2021/07/09 00:11:58;;;;;;;;;;;;;;;25.33;48.18;101691.53;5029086;28;1039;-66
2021/07/09 00:14:44;;;;;;;;;;;;;;;25.33;48.40;101683.53;5029226;28;1395;-66
2021/07/09 00:17:29;;;;;;;;;;;;;;;25.33;48.38;101684.41;5029048;28;1048;-66
2021/07/09 00:20:15;;;;;;;;;;;;;;;25.34;48.09;101682.59;5028733;28;659;-65
2021/07/09 00:23:00;;;;;;;;;;;;;;;25.36;48.30;101683.31;5029237;28;1312;-66
2021/07/09 00:25:46;;;;;;;;;;;;;;;25.34;48.13;101677.25;5029097;28;1065;-66
2021/07/09 00:28:31;;;;;;;;;;;;;;;25.32;47.60;101674.69;5028697;28;1405;-66
2021/07/09 00:31:17;;;;;;;;;;;;;;;25.31;48.02;101678.31;5028780;28;1973;-66
2021/07/09 00:34:04;;;;;;;;;;;;;;;25.30;48.18;101668.59;5028525;28;1278;-65
2021/07/09 00:36:48;;;;;;;;;;;;;;;25.32;47.94;101666.69;5028919;28;1034;-66
2021/07/09 00:39:34;;;;;;;;;;;;;;;25.31;48.21;101667.66;5028386;28;1326;-67
2021/07/09 00:42:19;;;;;;;;;;;;;;;25.30;47.90;101675.75;5028605;28;1035;-66
2021/07/09 00:45:05;;;;;;;;;;;;;;;25.29;47.94;101674.91;5028676;28;671;-66
2021/07/09 00:47:51;;;;;;;;;;;;;;;25.32;48.23;101672.00;5028706;28;1256;-66
2021/07/09 00:50:36;;;;;;;;;;;;;;;25.30;48.11;101665.09;5027995;28;1959;-66
2021/07/09 00:53:21;;;;;;;;;;;;;;;25.31;48.81;101673.00;5028518;28;1225;-66
2021/07/09 00:56:06;;;;;;;;;;;;;;;25.29;48.37;101669.56;5027425;28;1129;-65
2021/07/09 00:58:52;;;;;;;;;;;;;;;25.28;48.28;101667.88;5030227;28;1299;-65
2021/07/09 01:01:37;;;;;;;;;;;;;;;25.30;48.01;101668.59;5032065;28;1093;-66
2021/07/09 01:04:23;;;;;;;;;;;;;;;25.30;48.04;101659.75;5032299;28;1257;-66
2021/07/09 01:07:08;;;;;;;;;;;;;;;25.31;48.16;101654.31;5031752;28;1078;-65
2021/07/09 01:09:53;;;;;;;;;;;;;;;25.29;47.79;101653.56;5044585;28;1965;-66
2021/07/09 01:12:40;;;;;;;;;;;;;;;25.29;48.04;101656.22;5032221;28;1260;-65
2021/07/09 01:15:25;;;;;;;;;;;;;;;25.29;48.17;101647.41;5031886;28;703;-66
2021/07/09 01:18:10;;;;;;;;;;;;;;;25.27;47.81;101644.81;5031897;28;1280;-66
2021/07/09 01:20:55;;;;;;;;;;;;;;;25.27;48.07;101650.16;5032409;28;969;-65
2021/07/09 01:23:41;;;;;;;;;;;;;;;25.22;47.79;101646.13;5032228;28;1307;-65
2021/07/09 01:26:27;;;;;;;;;;;;;;;25.20;48.21;101648.88;5031891;28;1040;-65
2021/07/09 01:29:12;;;;;;;;;;;;;;;25.23;48.10;101642.50;5031865;28;1342;-66
2021/07/09 01:31:58;;;;;;;;;;;;;;;25.23;48.40;101643.31;5031829;28;1049;-65
2021/07/09 01:34:43;;;;;;;;;;;;;;;25.20;48.04;101646.19;5031625;28;1320;-65
2021/07/09 01:37:28;;;;;;;;;;;;;;;25.19;48.33;101646.31;5031215;28;1126;-65
2021/07/09 01:40:14;;;;;;;;;;;;;;;25.19;48.75;101646.31;5031750;28;655;-66
2021/07/09 01:42:59;;;;;;;;;;;;;;;25.17;48.30;101643.75;5032017;28;1309;-66
2021/07/09 01:45:45;;;;;;;;;;;;;;;25.16;48.36;101642.06;5031403;28;1037;-65
2021/07/09 01:48:30;;;;;;;;;;;;;;;25.16;48.33;101636.75;5031544;28;1251;-68
2021/07/09 01:51:15;;;;;;;;;;;;;;;25.18;48.32;101636.63;5030821;28;1914;-66
2021/07/09 01:54:01;;;;;;;;;;;;;;;25.17;48.31;101627.75;5031218;28;1348;-66
2021/07/09 01:56:46;;;;;;;;;;;;;;;25.17;48.21;101635.75;5031828;28;1126;-66
2021/07/09 01:59:31;;;;;;;;;;;;;;;25.15;48.65;101635.03;5030959;28;1241;-66
2021/07/09 02:02:17;;;;;;;;;;;;;;;25.17;48.21;101629.59;5031389;28;1030;-67
2021/07/09 02:05:05;;;;;;;;;;;;;;;25.14;48.83;101627.16;5030925;28;763;-66
2021/07/09 02:07:52;;;;;;;;;;;;;;;25.14;48.69;101629.81;5031366;28;1237;-66
2021/07/09 02:10:39;;;;;;;;;;;;;;;25.15;48.36;101629.69;5029558;28;1969;-66
2021/07/09 02:13:24;;;;;;;;;;;;;;;25.14;48.06;101630.63;5030817;28;1379;-66
2021/07/09 02:16:10;;;;;;;;;;;;;;;25.15;48.43;101632.34;5030787;28;1085;-66
2021/07/09 02:18:55;;;;;;;;;;;;;;;25.18;48.27;101632.13;5031367;28;1262;-66
2021/07/09 02:21:42;;;;;;;;;;;;;;;25.17;48.45;101627.75;5030706;28;1073;-65
2021/07/09 02:24:28;;;;;;;;;;;;;;;25.16;48.51;101620.75;5031060;28;1288;-66
2021/07/09 02:27:13;;;;;;;;;;;;;;;25.12;48.65;101618.38;5030836;28;943;-66
2021/07/09 02:29:59;;;;;;;;;;;;;;;25.13;48.64;101607.63;5030065;28;1969;-66
2021/07/09 02:32:45;;;;;;;;;;;;;;;25.12;48.41;101610.38;5030665;28;1351;-65
2021/07/09 02:35:32;;;;;;;;;;;;;;;25.10;48.72;101605.19;5030202;28;664;-65
2021/07/09 02:38:18;;;;;;;;;;;;;;;25.10;48.81;101599.84;5030349;28;1279;-65
2021/07/09 02:41:03;;;;;;;;;;;;;;;25.10;48.49;101599.84;5030317;28;1057;-66
2021/07/09 02:43:49;;;;;;;;;;;;;;;25.12;49.08;101605.06;5030457;28;1398;-66
2021/07/09 02:46:34;;;;;;;;;;;;;;;25.12;48.54;101592.59;5030623;28;1065;-67
2021/07/09 02:49:20;;;;;;;;;;;;;;;25.12;48.78;101589.91;5030197;28;1360;-67
2021/07/09 02:52:06;;;;;;;;;;;;;;;25.10;48.70;101591.00;5029855;28;1906;-66
2021/07/09 02:54:51;;;;;;;;;;;;;;;25.07;48.80;101584.06;5030483;28;1376;-66
2021/07/09 02:57:36;;;;;;;;;;;;;;;25.09;49.32;101592.78;5029041;28;1344;-66
2021/07/09 03:00:22;;;;;;;;;;;;;;;25.12;48.79;101594.38;5029914;28;819;-66
2021/07/09 03:03:08;;;;;;;;;;;;;;;25.11;48.76;101590.88;5029962;28;1331;-67
2021/07/09 03:05:53;;;;;;;;;;;;;;;25.09;48.96;101592.78;5029973;28;1049;-65
2021/07/09 03:08:38;;;;;;;;;;;;;;;25.08;48.90;101588.41;5029714;28;1351;-65
2021/07/09 03:11:24;;;;;;;;;;;;;;;25.08;49.05;101591.09;5028538;28;1965;-64
2021/07/09 03:14:09;;;;;;;;;;;;;;;25.06;49.08;101590.34;5029777;28;1268;-64
2021/07/09 03:16:54;;;;;;;;;;;;;;;25.07;49.23;101594.72;5029857;28;987;-64
2021/07/09 03:19:40;;;;;;;;;;;;;;;25.06;49.01;101589.50;5029372;28;1301;-64
2021/07/09 03:22:25;;;;;;;;;;;;;;;25.06;49.30;101593.00;5029056;28;1004;-65
2021/07/09 03:25:12;;;;;;;;;;;;;;;25.06;49.07;101587.69;5029299;28;636;-66
2021/07/09 03:27:59;;;;;;;;;;;;;;;25.05;49.59;101579.81;5028258;28;1252;-65
2021/07/09 03:30:44;;;;;;;;;;;;;;;25.01;49.21;101584.50;5029038;28;1959;-65
2021/07/09 03:33:30;;;;;;;;;;;;;;;25.02;49.92;101584.38;5028235;28;1391;-63
2021/07/09 03:36:16;;;;;;;;;;;;;;;25.01;49.33;101581.84;5029460;28;983;-65
2021/07/09 03:39:01;;;;;;;;;;;;;;;25.05;49.24;101579.81;5029355;28;1296;-64
2021/07/09 03:41:46;;;;;;;;;;;;;;;25.02;49.29;101581.72;5029728;28;1039;-65
2021/07/09 03:44:32;;;;;;;;;;;;;;;25.04;49.52;101583.44;5029184;28;1378;-65
2021/07/09 03:47:17;;;;;;;;;;;;;;;25.04;49.37;101578.09;5029423;28;1052;-65
2021/07/09 03:50:03;;;;;;;;;;;;;;;25.02;49.58;101574.69;5029202;28;2034;-64
2021/07/09 03:52:48;;;;;;;;;;;;;;;25.02;49.51;101575.53;5029403;28;1379;-65
2021/07/09 03:55:33;;;;;;;;;;;;;;;25.00;49.54;101577.44;5029228;28;617;-66
2021/07/09 03:58:19;;;;;;;;;;;;;;;24.97;49.69;101575.84;5029006;28;1298;-65
2021/07/09 04:01:04;;;;;;;;;;;;;;;25.01;49.99;101576.50;5029091;28;1071;-65
2021/07/09 04:03:50;;;;;;;;;;;;;;;25.00;49.53;101578.31;5028893;28;1401;-65
2021/07/09 04:06:40;;;;;;;;;;;;;;;25.02;49.50;101574.69;5028743;28;913;-65
2021/07/09 04:09:25;;;;;;;;;;;;;;;24.98;49.77;101579.38;5028674;28;1290;-65
2021/07/09 04:12:10;;;;;;;;;;;;;;;24.95;49.91;101577.78;5028768;28;1974;-65
2021/07/09 04:14:56;;;;;;;;;;;;;;;24.97;49.95;101583.00;5028534;28;1164;-65
2021/07/09 04:17:41;;;;;;;;;;;;;;;24.94;49.78;101581.41;5029171;28;1323;-65
2021/07/09 04:20:26;;;;;;;;;;;;;;;24.94;49.99;101583.22;5028536;28;624;-65
2021/07/09 04:23:11;;;;;;;;;;;;;;;24.92;49.92;101582.47;5028471;28;1247;-64
2021/07/09 04:25:57;;;;;;;;;;;;;;;24.91;50.09;101583.44;5028917;28;928;-65
2021/07/09 04:28:42;;;;;;;;;;;;;;;24.93;49.93;101576.16;5029059;28;1378;-65
2021/07/09 04:31:28;;;;;;;;;;;;;;;24.91;50.00;101581.63;5028523;28;1922;-63
2021/07/09 04:34:14;;;;;;;;;;;;;;;24.92;50.00;101580.66;5031248;28;1374;-65
2021/07/09 04:36:59;;;;;;;;;;;;;;;24.92;50.07;101585.16;5032932;28;1043;-65
2021/07/09 04:39:44;;;;;;;;;;;;;;;24.88;50.19;101581.84;5032842;28;1363;-67
2021/07/09 04:42:30;;;;;;;;;;;;;;;24.89;50.16;101588.88;5032788;28;1170;-66
2021/07/09 04:45:15;;;;;;;;;;;;;;;24.89;50.07;101588.03;5032914;28;672;-67
2021/07/09 04:48:01;;;;;;;;;;;;;;;24.88;50.29;101586.31;5045535;28;1373;-67
2021/07/09 04:50:46;;;;;;;;;;;;;;;24.93;50.35;101592.16;5032640;28;1898;-67
2021/07/09 04:53:32;;;;;;;;;;;;;;;24.91;50.63;101586.09;5032398;28;1224;-67
2021/07/09 04:56:17;;;;;;;;;;;;;;;24.92;50.29;101579.81;5031576;28;952;-67
2021/07/09 04:59:02;;;;;;;;;;;;;;;24.92;50.12;101590.47;5032985;28;1272;-67
2021/07/09 05:01:51;;;;;;;;;;;;;;;24.91;50.35;101578.09;5032643;28;1133;-67
2021/07/09 05:04:36;;;;;;;;;;;;;;;24.90;50.23;101582.56;5032326;28;1371;-67
2021/07/09 05:07:21;;;;;;;;;;;;;;;24.91;50.26;101588.75;5032644;28;1049;-67
2021/07/09 05:10:07;;;;;;;;;;;;;;;24.91;50.35;101584.28;5031930;28;644;-67
2021/07/09 05:12:52;;;;;;;;;;;;;;;24.93;50.39;101586.81;5037049;28;1504;-67
2021/07/09 05:15:37;;;;;;;;;;;;;;;24.92;50.69;101585.16;5031674;28;1118;-67
2021/07/09 05:18:24;;;;;;;;;;;;;;;24.92;50.42;101585.16;5032042;28;1244;-67
2021/07/09 05:21:10;;;;;;;;;;;;;;;24.93;50.31;101586.81;5031886;28;1032;-68
2021/07/09 05:23:55;;;;;;;;;;;;;;;24.90;50.70;101587.91;5031475;28;1243;-67
2021/07/09 05:26:42;;;;;;;;;;;;;;;24.93;50.22;101577.03;5031954;28;1121;-67
2021/07/09 05:29:28;;;;;;;;;;;;;;;24.94;50.20;101573.41;5031558;28;1350;-67
2021/07/09 05:32:21;;;;;;;;;;;;;;;24.96;50.91;101570.63;5030699;28;1972;-68
2021/07/09 05:35:07;;;;;;;;;;;;;;;24.91;50.39;101568.28;5031257;28;1111;-70
2021/07/09 05:37:52;;;;;;;;;;;;;;;24.90;50.42;101565.72;5031762;28;1264;-69
2021/07/09 05:40:37;;;;;;;;;;;;;;;24.91;50.78;101567.44;5031375;28;1041;-66
2021/07/09 05:43:22;;;;;;;;;;;;;;;24.94;50.87;101567.22;5031421;28;1291;-66
2021/07/09 05:46:07;;;;;;;;;;;;;;;24.95;50.61;101563.59;5044222;28;1113;-68
2021/07/09 05:48:53;;;;;;;;;;;;;;;24.95;51.02;101561.81;5031424;28;1359;-67
2021/07/09 05:51:39;;;;;;;;;;;;;;;24.98;50.76;101560.72;5031234;28;1902;-68
2021/07/09 05:54:24;;;;;;;;;;;;;;;24.98;50.78;101558.06;5031450;28;1346;-68
2021/07/09 05:57:10;;;;;;;;;;;;;;;24.97;51.08;101565.19;5031686;28;1129;-69
2021/07/09 05:59:55;;;;;;;;;;;;;;;24.96;51.02;101565.28;5030527;28;1256;-68
2021/07/09 06:02:41;;;;;;;;;;;;;;;24.99;51.26;101562.41;5040173;28;1490;-68
2021/07/09 06:05:26;;;;;;;;;;;;;;;25.00;51.57;101556.13;5030304;28;643;-72
2021/07/09 06:08:11;;;;;;;;;;;;;;;24.96;51.50;101559.97;5029995;28;1384;-72
2021/07/09 06:10:57;;;;;;;;;;;;;;;24.98;51.57;101561.59;5028554;28;2049;-69
2021/07/09 06:13:42;;;;;;;;;;;;;;;24.99;51.65;101559.75;5036676;28;1453;-69
2021/07/09 06:16:30;;;;;;;;;;;;;;;24.98;51.86;101564.25;5031812;28;1114;-69
2021/07/09 06:19:15;;;;;;;;;;;;;;;25.02;51.82;101570.19;5029674;28;1304;-75
2021/07/09 06:22:01;;;;;;;;;;;;;;;25.04;51.65;101562.09;5028540;28;1043;-74
2021/07/09 06:24:46;;;;;;;;;;;;;;;25.05;51.64;101559.31;5029577;28;1298;-73
2021/07/09 06:27:31;;;;;;;;;;;;;;;25.06;52.01;101563.69;5029850;28;1131;-71
2021/07/09 06:30:17;;;;;;;;;;;;;;;25.08;51.72;101563.59;5029490;28;733;-73
2021/07/09 06:33:03;;;;;;;;;;;;;;;25.09;51.98;101560.81;5029332;28;1902;-71
2021/07/09 06:35:48;;;;;;;;;;;;;;;25.12;51.81;101565.06;5028951;28;1075;-71
2021/07/09 06:38:34;;;;;;;;;;;;;;;25.12;51.74;101560.59;5028940;28;1290;-69
2021/07/09 06:41:19;;;;;;;;;;;;;;;25.13;52.13;101567.63;5028911;28;1102;-71
2021/07/09 06:44:05;;;;;;;;;;;;;;;25.14;52.09;101565.81;5028617;28;1263;-69
2021/07/09 06:46:50;;;;;;;;;;;;;;;25.15;51.68;101571.03;5028636;28;1129;-72
2021/07/09 06:49:35;;;;;;;;;;;;;;;25.16;51.92;101579.88;5028590;28;1243;-71
2021/07/09 06:52:20;;;;;;;;;;;;;;;25.14;51.59;101571.97;5028691;28;1969;-77
2021/07/09 06:55:06;;;;;;;;;;;;;;;25.17;51.61;101573.59;5028547;28;729;-70
2021/07/09 06:57:51;;;;;;;;;;;;;;;25.18;51.56;101575.28;5027609;28;1267;-72
2021/07/09 07:00:37;;;;;;;;;;;;;;;25.20;51.43;101571.56;5029659;28;1735;-71
2021/07/09 07:03:23;;;;;;;;;;;;;;;25.21;51.42;101573.25;5039795;28;1416;-77
2021/07/09 07:06:11;;;;;;;;;;;;;;;25.21;51.52;101575.94;5050613;28;1095;-76
2021/07/09 07:08:56;;;;;;;;;;;;;;;25.20;51.48;101576.88;5029591;28;1394;-75
2021/07/09 07:11:42;;;;;;;;;;;;;;;25.17;51.75;101569.09;5041515;28;1973;-75
2021/07/09 07:14:28;;;;;;;;;;;;;;;25.24;51.80;101581.03;5027991;28;1257;-73
2021/07/09 07:17:16;;;;;;;;;;;;;;;25.29;51.88;101583.41;5029849;28;904;-68
2021/07/09 07:20:01;;;;;;;;;;;;;;;25.31;51.46;101577.00;5029236;28;714;-68
2021/07/09 07:22:46;;;;;;;;;;;;;;;25.29;51.78;101584.22;5029171;28;1342;-66
2021/07/09 07:25:32;;;;;;;;;;;;;;;25.30;51.37;101577.09;5040443;28;1663;-67
2021/07/09 07:28:18;;;;;;;;;;;;;;;25.28;51.17;101577.22;5047463;28;1375;-67
2021/07/09 07:31:22;;;;;;;;;;;;;;;25.28;51.22;101582.53;5047790;28;1902;-68
2021/07/09 07:34:08;;;;;;;;;;;;;;;25.30;51.21;101580.59;5047377;28;1310;-66
2021/07/09 07:36:53;;;;;;;;;;;;;;;25.34;51.04;101582.09;5047592;28;1032;-68
2021/07/09 07:39:38;;;;;;;;;;;;;;;25.36;50.54;101590.84;5046860;28;1294;-67
2021/07/09 07:42:23;;;;;;;;;;;;;;;25.35;50.83;101580.28;5047276;28;1173;-67
2021/07/09 07:45:09;;;;;;;;;;;;;;;25.36;51.56;101573.97;5047141;28;719;-67
2021/07/09 07:47:55;;;;;;;;;;;;;;;25.39;51.46;101584.41;5045915;28;1260;-65
2021/07/09 07:50:40;;;;;;;;;;;;;;;25.39;50.74;101574.63;5046632;28;1478;-65
2021/07/09 07:53:25;;;;;;;;;;;;;;;25.38;51.22;101578.22;5046826;28;1947;-65
2021/07/09 07:56:10;;;;;;;;;;;;;;;25.39;51.43;101581.75;5040562;28;1448;-65
2021/07/09 07:58:56;;;;;;;;;;;;;;;25.44;51.75;101576.97;5037296;28;1311;-63
2021/07/09 08:01:41;;;;;;;;;;;;;;;25.50;51.04;101580.03;5045576;28;1572;-62
2021/07/09 08:04:26;;;;;;;;;;;;;;;25.50;50.75;101566.72;5045187;28;1236;-63
2021/07/09 08:07:14;;;;;;;;;;;;;;;25.48;51.02;101562.41;5045666;28;1066;-63
2021/07/09 08:09:59;;;;;;;;;;;;;;;25.47;51.15;101569.56;5046277;28;675;-62
2021/07/09 08:12:45;;;;;;;;;;;;;;;25.54;51.97;101564.69;5046676;28;1906;-63
2021/07/09 08:15:30;;;;;;;;;;;;;;;25.50;51.25;101553.38;5047405;28;690;-64
2021/07/09 08:18:15;;;;;;;;;;;;;;;25.51;51.27;101557.75;5048055;28;1225;-61
2021/07/09 08:21:01;;;;;;;;;;;;;;;25.51;51.16;101555.09;5045514;28;1726;-62
2021/07/09 08:23:46;;;;;;;;;;;;;;;25.61;52.02;101547.28;5045686;28;1293;-62
2021/07/09 08:26:31;;;;;;;;;;;;;;;25.62;51.58;101548.97;5045884;28;1126;-63
2021/07/09 08:29:17;;;;;;;;;;;;;;;25.58;51.59;101531.47;5046459;28;1306;-63
2021/07/09 08:32:11;;;;;;;;;;;;;;;25.63;51.56;101537.31;5046006;28;1965;-65
2021/07/09 08:34:56;;;;;;;;;;;;;;;25.68;52.02;101542.34;5046977;28;1471;-64
2021/07/09 08:37:49;;;;;;;;;;;;;;;25.69;51.25;101530.69;5046333;28;1291;-65
2021/07/09 08:40:36;;;;;;;;;;;;;;;25.66;51.41;101538.91;5046041;28;1057;-64
2021/07/09 08:43:41;;;;;;;;;;;;;;;25.66;51.27;101533.56;5046135;28;1225;-63
2021/07/09 08:46:28;;;;;;;;;;;;;;;25.65;51.24;101532.75;5046223;28;1542;-63
2021/07/09 08:49:19;;;;;;;;;;;;;;;25.69;51.53;101528.00;5045176;28;1356;-62
2021/07/09 08:52:05;;;;;;;;;;;;;;;25.68;51.59;101531.66;5046046;28;1906;-64
2021/07/09 08:54:50;;;;;;;;;;;;;;;25.67;51.85;101532.63;5045998;28;1268;-63
2021/07/09 08:57:35;;;;;;;;;;;;;;;25.69;51.53;101536.00;5026693;28;1310;-63
2021/07/09 09:00:21;;;;;;;;;;;;;;;25.74;51.62;101525.88;5026659;28;620;-63
2021/07/09 09:03:11;;;;;;;;;;;;;;;25.76;51.62;101529.25;5026635;28;1273;-64
2021/07/09 09:06:00;;;;;;;;;;;;;;;25.78;51.35;101514.84;5026119;28;1090;-63
2021/07/09 09:08:49;;;;;;;;;;;;;;;25.75;51.59;101514.22;5025829;28;1382;-63
2021/07/09 09:11:34;;;;;;;;;;;;;;;25.73;51.76;101524.16;5026242;28;1901;-62
2021/07/09 09:14:23;;;;;;;;;;;;;;;25.72;51.74;101522.44;5026316;28;1228;-63
2021/07/09 09:17:28;;;;;;;;;;;;;;;25.71;51.60;101515.44;5026460;28;897;-62
2021/07/09 09:20:14;;;;;;;;;;;;;;;25.73;51.67;101516.16;5028576;28;639;-63
2021/07/09 09:23:01;;;;;;;;;;;;;;;25.73;51.43;101497.47;5029812;28;1288;-63
2021/07/09 09:25:47;;;;;;;;;;;;;;;25.73;51.74;101511.66;5027799;28;1042;-63
2021/07/09 09:28:36;;;;;;;;;;;;;;;25.75;52.04;101506.22;5041976;28;1327;-65
2021/07/09 09:31:26;;;;;;;;;;;;;;;25.75;52.55;101506.22;5049745;28;1068;-67
2021/07/09 09:34:11;;;;;;;;;;;;;;;25.80;51.71;101501.41;5049242;28;1353;-67
2021/07/09 09:36:58;;;;;;;;;;;;;;;25.79;52.46;101505.88;5049532;28;918;-68
2021/07/09 09:39:45;;;;;;;;;;;;;;;25.83;52.28;101509.19;5049188;28;1366;-64
2021/07/09 09:42:31;;;;;;;;;;;;;;;25.89;52.40;101501.56;5049176;28;1711;-66
2021/07/09 09:45:21;;;;;;;;;;;;;;;25.91;52.22;101498.75;5049380;28;1130;-66
2021/07/09 09:48:12;;;;;;;;;;;;;;;25.90;52.20;101494.41;5034129;28;1387;-67
2021/07/09 09:50:57;;;;;;;;;;;;;;;25.85;51.85;101496.56;5049258;28;1332;-67
2021/07/09 09:53:43;;;;;;;;;;;;;;;25.85;52.07;101491.22;5048644;28;2009;-66
2021/07/09 09:56:48;;;;;;;;;;;;;;;25.83;51.89;101491.34;5048940;28;1513;-67
2021/07/09 09:59:33;;;;;;;;;;;;;;;25.87;51.69;101498.13;5048909;28;1280;-66
2021/07/09 10:02:21;;;;;;;;;;;;;;;25.87;51.53;101482.13;5048954;28;1105;-65
2021/07/09 10:05:06;;;;;;;;;;;;;;;25.88;52.14;101486.50;5048733;28;727;-66
2021/07/09 10:07:52;;;;;;;;;;;;;;;25.87;51.59;101483.97;5049346;28;1262;-65
2021/07/09 10:10:39;;;;;;;;;;;;;;;25.86;51.64;101477.78;5048779;28;1039;-62
2021/07/09 10:13:24;;;;;;;;;;;;;;;25.87;51.59;101478.63;5049187;28;1910;-65
2021/07/09 10:16:10;;;;;;;;;;;;;;;25.89;51.57;101471.34;5048559;28;1128;-65
2021/07/09 10:18:57;;;;;;;;;;;;;;;25.89;51.98;101488.22;5048819;28;1323;-65
2021/07/09 10:21:42;;;;;;;;;;;;;;;25.89;51.66;101477.53;5048743;28;994;-63
2021/07/09 10:24:27;;;;;;;;;;;;;;;25.90;51.65;101483.72;5048176;28;1367;-64
2021/07/09 10:27:13;;;;;;;;;;;;;;;25.89;51.86;101477.53;5048030;28;1445;-65
2021/07/09 10:30:03;;;;;;;;;;;;;;;25.91;51.77;101480.94;5048989;28;1284;-66
2021/07/09 10:32:49;;;;;;;;;;;;;;;25.92;51.79;101466.63;5046983;28;1906;-64
2021/07/09 10:35:37;;;;;;;;;;;;;;;25.93;51.93;101472.81;5047736;28;683;-65
2021/07/09 10:38:23;;;;;;;;;;;;;;;25.97;51.65;101468.94;5048412;28;1305;-66
2021/07/09 10:41:19;;;;;;;;;;;;;;;25.99;51.76;101467.03;5048585;28;1103;-66
2021/07/09 10:44:10;;;;;;;;;;;;;;;26.00;52.30;101460.69;5049047;28;1378;-65
2021/07/09 10:47:13;;;;;;;;;;;;;;;26.00;51.84;101463.34;5048792;28;958;-66
2021/07/09 10:49:58;;;;;;;;;;;;;;;26.02;52.25;101464.13;5048654;28;1312;-65
2021/07/09 10:52:45;;;;;;;;;;;;;;;26.00;52.53;101456.22;5047807;28;1922;-65
2021/07/09 10:55:32;;;;;;;;;;;;;;;26.01;52.63;101449.06;5047760;28;1552;-65
2021/07/09 10:58:27;;;;;;;;;;;;;;;26.00;52.12;101439.34;5047630;28;1408;-65
2021/07/09 11:01:13;;;;;;;;;;;;;;;26.00;52.50;101448.19;5048280;28;1027;-66
2021/07/09 11:04:09;;;;;;;;;;;;;;;25.99;52.53;101446.50;5047318;28;1389;-65
2021/07/09 11:07:18;;;;;;;;;;;;;;;26.02;52.40;101440.91;5048109;28;1070;-64
2021/07/09 11:10:08;;;;;;;;;;;;;;;26.01;52.44;101430.38;5047358;28;663;-64
2021/07/09 11:12:58;;;;;;;;;;;;;;;26.02;52.26;101427.56;5048079;28;1918;-67
2021/07/09 11:15:57;;;;;;;;;;;;;;;26.02;52.17;101437.41;5048030;28;1150;-67
2021/07/09 11:19:04;;;;;;;;;;;;;;;26.02;52.29;101430.25;5046136;28;1319;-66
2021/07/09 11:21:56;;;;;;;;;;;;;;;26.04;52.33;101416.78;5046418;28;943;-65
2021/07/09 11:24:53;;;;;;;;;;;;;;;26.05;52.38;101427.34;5047616;28;1314;-66
2021/07/09 11:27:44;;;;;;;;;;;;;;;26.07;52.63;101417.41;5047309;28;1291;-65
2021/07/09 11:30:34;;;;;;;;;;;;;;;26.09;52.50;101403.91;5048729;28;648;-65
2021/07/09 11:33:23;;;;;;;;;;;;;;;26.16;52.80;101399.00;5045513;28;1933;-66
2021/07/09 11:36:20;;;;;;;;;;;;;;;26.08;52.33;101403.06;5035300;28;1488;-65
2021/07/09 11:39:24;;;;;;;;;;;;;;;26.09;52.30;101393.25;5034240;28;1310;-67
2021/07/09 11:42:10;;;;;;;;;;;;;;;26.08;52.39;101397.72;5027686;28;1056;-67
2021/07/09 11:44:56;;;;;;;;;;;;;;;26.12;52.94;101393.00;5028340;28;1261;-66
2021/07/09 11:47:43;;;;;;;;;;;;;;;26.12;53.25;101392.16;5029251;28;1343;-65
2021/07/09 11:50:28;;;;;;;;;;;;;;;26.14;52.64;101383.06;5027458;28;1376;-66
2021/07/09 11:53:15;;;;;;;;;;;;;;;26.13;52.45;101388.53;5040801;28;1907;-66
2021/07/09 11:56:16;;;;;;;;;;;;;;;26.13;52.49;101396.53;5046853;28;1545;-66
2021/07/09 11:59:11;;;;;;;;;;;;;;;26.23;52.41;101408.22;5047074;28;1276;-69
2021/07/09 12:02:00;;;;;;;;;;;;;;;26.21;52.33;101386.13;5045361;28;1597;-64
2021/07/09 12:04:52;;;;;;;;;;;;;;;26.02;51.12;101384.03;5039901;28;1444;-65
2021/07/09 12:07:38;;;;;;;;;;;;;;;25.87;50.57;101377.22;5040459;28;1472;-65
2021/07/09 12:10:24;;;;;;;;;;;;;;;25.73;49.72;101380.91;5032667;28;1503;-69
2021/07/09 12:13:10;;;;;;;;;;;;;;;25.61;49.66;101375.66;5029102;28;1959;-67
2021/07/09 12:16:02;;;;;;;;;;;;;;;25.62;49.73;101369.38;5026898;28;1700;-68
2021/07/09 12:18:51;;;;;;;;;;;;;;;25.61;49.32;101373.84;5045049;28;1819;-66
2021/07/09 12:21:37;;;;;;;;;;;;;;;25.59;48.69;101367.78;5044643;28;1526;-67
2021/07/09 12:24:22;;;;;;;;;;;;;;;25.52;49.03;101370.06;5026227;28;1903;-67
2021/07/09 12:27:08;;;;;;;;;;;;;;;25.56;48.99;101369.84;5032451;28;1705;-66
2021/07/09 12:29:53;;;;;;;;;;;;;;;25.62;49.98;101372.03;5036476;28;1783;-69
2021/07/09 12:32:43;;;;;;;;;;;;;;;25.57;50.28;101359.03;5027291;28;1878;-65
2021/07/09 12:35:30;;;;;;;;;;;;;;;25.58;50.64;101354.56;5027329;28;684;-67
2021/07/09 12:38:21;;;;;;;;;;;;;;;25.57;50.41;101368.84;5025514;28;1385;-68
2021/07/09 12:41:08;;;;;;;;;;;;;;;25.52;49.78;101356.75;5042341;28;1101;-68
2021/07/09 12:44:08;;;;;;;;;;;;;;;25.50;50.36;101352.50;5046299;28;1307;-69
2021/07/09 12:46:58;;;;;;;;;;;;;;;25.55;50.02;101339.63;5038649;28;1429;-74
2021/07/09 12:49:44;;;;;;;;;;;;;;;25.61;49.98;101349.00;5044598;28;1314;-67
2021/07/09 12:52:34;;;;;;;;;;;;;;;25.67;50.22;101348.53;5027275;28;2029;-71
2021/07/09 12:55:38;;;;;;;;;;;;;;;25.71;49.93;101331.31;5030779;28;683;-70
2021/07/09 12:58:25;;;;;;;;;;;;;;;25.74;49.28;101333.75;5031857;28;1430;-72
2021/07/09 13:01:11;;;;;;;;;;;;;;;25.66;49.62;101341.47;5031381;28;1034;-75
2021/07/09 13:03:56;;;;;;;;;;;;;;;25.53;48.85;101336.25;5030562;28;1264;-72
2021/07/09 13:06:42;;;;;;;;;;;;;;;25.56;48.67;101332.50;5031535;28;1076;-67
2021/07/09 13:09:30;;;;;;;;;;;;;;;25.54;48.11;101328.13;5049891;28;1275;-69
2021/07/09 13:12:20;;;;;;;;;;;;;;;25.52;48.27;101324.72;5050933;28;1051;-67
2021/07/09 13:15:08;;;;;;;;;;;;;;;25.50;47.88;101334.63;5048712;28;1095;-68
2021/07/09 13:18:03;;;;;;;;;;;;;;;25.46;47.48;101308.31;5057004;28;1295;-67
2021/07/09 13:20:56;;;;;;;;;;;;;;;25.43;47.43;101312.06;5048638;28;1141;-67
2021/07/09 13:23:41;;;;;;;;;;;;;;;25.43;47.11;101308.53;5050824;28;1344;-66
2021/07/09 13:26:38;;;;;;;;;;;;;;;25.41;46.90;101303.31;5049060;28;1153;-66
2021/07/09 13:29:25;;;;;;;;;;;;;;;25.41;46.71;101305.16;5048087;28;1305;-67
2021/07/09 13:32:10;;;;;;;;;;;;;;;25.37;46.73;101307.19;5049569;28;1103;-68
2021/07/09 13:34:56;;;;;;;;;;;;;;;25.37;46.76;101293.88;5050646;28;1275;-69
2021/07/09 13:37:41;;;;;;;;;;;;;;;25.33;46.65;101297.72;5050352;28;1272;-68
2021/07/09 13:40:26;;;;;;;;;;;;;;;25.33;46.21;101294.19;5048307;28;1028;-68
2021/07/09 13:43:11;;;;;;;;;;;;;;;25.29;46.35;101296.25;5048596;28;1397;-71
2021/07/09 13:45:57;;;;;;;;;;;;;;;25.36;45.85;101300.16;5048384;28;1558;-70
2021/07/09 13:48:42;;;;;;;;;;;;;;;25.38;45.62;101295.53;5048872;28;1502;-70
2021/07/09 13:51:28;;;;;;;;;;;;;;;25.37;46.06;101285.00;5054953;28;1492;-70
2021/07/09 13:54:13;;;;;;;;;;;;;;;25.37;45.88;101293.00;5059296;28;1891;-72
2021/07/09 13:57:07;;;;;;;;;;;;;;;25.35;45.90;101277.09;5065137;28;1101;-71
2021/07/09 13:59:53;;;;;;;;;;;;;;;25.33;45.78;101284.38;5059786;28;1303;-72
2021/07/09 14:02:38;;;;;;;;;;;;;;;25.33;45.35;101279.06;5049362;28;1606;-70
2021/07/09 14:05:23;;;;;;;;;;;;;;;25.33;45.33;101273.72;5047253;28;1307;-71
2021/07/09 14:08:09;;;;;;;;;;;;;;;25.30;45.34;101265.94;5047024;28;1330;-72
2021/07/09 14:10:55;;;;;;;;;;;;;;;25.29;45.22;101269.56;5048115;28;1191;-71
2021/07/09 14:13:40;;;;;;;;;;;;;;;25.22;45.47;101257.69;5045359;28;1971;-72
2021/07/09 14:16:25;;;;;;;;;;;;;;;25.22;45.55;101257.69;5038650;28;1764;-71
2021/07/09 14:19:11;;;;;;;;;;;;;;;25.24;45.50;101250.44;5044047;28;1363;-71
2021/07/09 14:21:56;;;;;;;;;;;;;;;25.22;44.95;101244.38;5046945;28;1099;-71
2021/07/09 14:24:41;;;;;;;;;;;;;;;25.20;45.30;101262.28;5047227;28;1323;-72
2021/07/09 14:27:27;;;;;;;;;;;;;;;25.16;45.26;101246.66;5045879;28;1181;-70
2021/07/09 14:30:12;;;;;;;;;;;;;;;25.14;45.30;101241.41;5044987;28;1071;-73